Terminal Aerodrome Forecast
Issued by NWS

Home | Current Version | Previous Version | Text Only | Print | Product List | Glossary On
Versions: 1 2 3 4 5 6 7 8 9 10 11 12 13 14
503
FTUS45 KTFX 281120
TAFLWT
TAF
KLWT 281120Z 2812/2912 32006KT 6SM BR VCSH OVC012
      TEMPO 2812/2816 3SM BR BKN006 OVC012
     FM282000 34006KT P6SM VCSH BKN035 PROB30 2821/2903 4SM -SHRA
      OVC025
     FM290400 26005KT P6SM BKN045
     FM290900 21005KT P6SM SCT080=

USA.gov is the U.S. government's official web portal to all federal, state and local government web resources and services.